Time;durP1;ratioP1;P1;durP2;ratioP2;P2;SDS_P1;SDS_P2;PMS_P1;PMS_P2;Temp;Humidity;BMP_temperature;BMP_pressure;BME280_temperature;BME280_humidity;BME280_pressure;Samples;Min_cycle;Max_cycle;Signal;HPM_P1;HPM_P2
2021/10/13 00:03:59;;;;;;;96.10;12.88;;;;;;;6.13;70.55;100430.31;10382672;28;20053;-63
2021/10/13 00:09:01;;;;;;;98.68;13.60;;;;;;;6.22;70.34;100432.63;10380611;28;20064;-63
2021/10/13 00:14:03;;;;;;;40.60;12.15;;;;;;;6.39;70.24;100432.91;10377787;28;20194;-63
2021/10/13 00:19:06;;;;;;;38.42;13.30;;;;;;;6.48;69.95;100434.34;10390112;28;20060;-63
2021/10/13 00:24:08;;;;;;;24.05;11.32;;;;;;;6.50;70.07;100450.72;10388742;28;20057;-63
2021/10/13 00:29:09;;;;;;;20.30;11.52;;;;;;;6.66;69.84;100462.28;10388781;28;20052;-63
2021/10/13 00:34:11;;;;;;;53.33;13.57;;;;;;;6.78;69.50;100457.50;10389569;28;20409;-64
2021/10/13 00:39:13;;;;;;;18.67;11.10;;;;;;;6.82;69.63;100474.69;10388230;28;20049;-63
2021/10/13 00:44:15;;;;;;;21.23;10.80;;;;;;;6.84;69.58;100480.66;10389537;28;20045;-63
2021/10/13 00:49:16;;;;;;;24.00;10.80;;;;;;;6.88;69.40;100476.19;10389944;28;20045;-63
2021/10/13 00:54:19;;;;;;;23.17;11.52;;;;;;;6.93;69.26;100477.75;10389338;28;20050;-63
2021/10/13 00:59:20;;;;;;;29.42;13.32;;;;;;;7.01;69.06;100486.13;10389160;28;20053;-63
2021/10/13 01:04:51;;;;;;;20.52;12.32;;;;;;;7.01;69.02;100486.13;10387765;28;20054;-63
2021/10/13 01:10:26;;;;;;;25.55;14.10;;;;;;;7.06;68.65;100488.56;10388645;28;20049;-63
2021/10/13 01:15:45;;;;;;;20.20;11.60;;;;;;;6.99;69.11;100484.47;10387495;28;20410;-63
2021/10/13 01:21:13;;;;;;;23.98;12.90;;;;;;;7.05;69.03;100479.03;10388664;28;20694;-63
2021/10/13 01:26:43;;;;;;;26.30;13.15;;;;;;;7.16;68.92;100482.13;10384938;28;20049;-63
2021/10/13 01:31:58;;;;;;;26.05;14.60;;;;;;;7.19;69.09;100479.38;10388023;28;20088;-63
2021/10/13 01:37:10;;;;;;;26.40;14.98;;;;;;;7.11;69.12;100481.41;10387426;28;20049;-63
2021/10/13 01:42:15;;;;;;;25.63;15.20;;;;;;;7.19;69.18;100479.38;10385489;28;20045;-63
2021/10/13 01:47:20;;;;;;;29.60;16.08;;;;;;;7.24;69.12;100480.06;10387172;28;20045;-63
2021/10/13 01:52:24;;;;;;;26.33;15.68;;;;;;;7.42;68.80;100466.38;10387803;28;20049;-63
2021/10/13 01:57:28;;;;;;;28.60;15.63;;;;;;;7.49;68.60;100472.19;10386401;28;20067;-63
2021/10/13 02:02:31;;;;;;;24.15;15.27;;;;;;;7.38;68.48;100471.75;10389897;28;20068;-63
2021/10/13 02:07:37;;;;;;;29.30;16.55;;;;;;;7.27;68.56;100472.13;10393526;28;20056;-62
2021/10/13 02:12:44;;;;;;;30.42;16.15;;;;;;;7.14;68.87;100466.53;10393356;28;20061;-63
2021/10/13 02:17:51;;;;;;;33.75;17.02;;;;;;;7.09;68.55;100470.22;10393570;28;20068;-62
2021/10/13 02:22:59;;;;;;;31.95;17.27;;;;;;;7.10;68.79;100474.53;10392266;28;20865;-62
2021/10/13 02:28:02;;;;;;;30.42;18.20;;;;;;;7.17;68.52;100470.78;10392684;28;20038;-63
2021/10/13 02:33:04;;;;;;;29.17;17.40;;;;;;;7.27;68.47;100477.34;10392203;28;20265;-63
2021/10/13 02:38:05;;;;;;;31.35;18.50;;;;;;;7.26;68.46;100487.81;10392554;28;20055;-63
2021/10/13 02:43:09;;;;;;;27.85;16.90;;;;;;;7.43;68.44;100494.06;10391618;28;20139;-62
2021/10/13 02:48:16;;;;;;;32.50;19.73;;;;;;;7.55;68.42;100498.81;10392367;28;20524;-62
2021/10/13 02:53:25;;;;;;;36.83;19.02;;;;;;;7.72;68.22;100505.97;10392473;28;20057;-63
2021/10/13 02:58:46;;;;;;;41.38;19.50;;;;;;;7.74;67.79;100515.44;10391576;28;20505;-63
2021/10/13 03:03:57;;;;;;;22.58;15.63;;;;;;;7.57;68.24;100520.41;10389068;28;20049;-63
2021/10/13 03:09:00;;;;;;;34.42;18.00;;;;;;;7.61;68.21;100528.97;10386920;28;20049;-62
2021/10/13 03:14:02;;;;;;;49.90;21.27;;;;;;;7.51;68.40;100531.06;10383537;28;20064;-62
2021/10/13 03:19:04;;;;;;;37.17;19.50;;;;;;;7.61;68.63;100534.19;10384946;28;20049;-62
2021/10/13 03:24:08;;;;;;;31.98;17.45;;;;;;;7.80;68.34;100535.16;10385158;28;20433;-62
2021/10/13 03:29:11;;;;;;;29.90;17.17;;;;;;;7.81;67.74;100532.47;10384497;28;20400;-63
2021/10/13 03:34:15;;;;;;;32.70;18.50;;;;;;;7.81;68.26;100549.88;10384540;28;20054;-62
2021/10/13 03:39:17;;;;;;;32.45;18.10;;;;;;;7.85;68.24;100552.28;10383868;28;20219;-63
2021/10/13 03:44:19;;;;;;;40.45;18.67;;;;;;;7.98;68.08;100556.13;10383706;28;20062;-63
2021/10/13 03:49:21;;;;;;;32.55;18.50;;;;;;;8.06;67.96;100558.41;10383798;28;20498;-62
2021/10/13 03:54:23;;;;;;;30.85;17.70;;;;;;;8.04;67.90;100561.09;10391996;28;20045;-62
2021/10/13 03:59:24;;;;;;;42.30;19.48;;;;;;;8.03;67.83;100555.94;10391637;28;20421;-62
2021/10/13 04:04:26;;;;;;;71.13;23.00;;;;;;;8.00;67.62;100567.34;10390151;28;20490;-63
2021/10/13 04:09:28;;;;;;;47.10;22.10;;;;;;;7.83;68.19;100572.34;10390750;28;20045;-62
2021/10/13 04:14:29;;;;;;;32.58;19.00;;;;;;;7.79;68.07;100575.97;10391065;28;20335;-62
2021/10/13 04:19:31;;;;;;;31.80;18.60;;;;;;;7.92;68.10;100568.53;10389420;28;20050;-62
2021/10/13 04:24:33;;;;;;;47.45;21.45;;;;;;;8.00;67.90;100569.09;10389915;28;20096;-62
2021/10/13 04:29:35;;;;;;;36.88;21.40;;;;;;;8.03;68.00;100579.41;10390147;28;20061;-63
2021/10/13 04:34:36;;;;;;;41.28;24.33;;;;;;;8.03;67.70;100582.00;10389531;28;20056;-63
2021/10/13 04:39:38;;;;;;;39.72;24.80;;;;;;;7.97;67.91;100585.69;10390614;28;20055;-62
2021/10/13 04:44:40;;;;;;;49.10;27.88;;;;;;;7.96;67.79;100597.00;10389533;28;20216;-63
2021/10/13 04:49:41;;;;;;;43.85;25.75;;;;;;;8.03;67.80;100595.03;10389814;28;20049;-63
2021/10/13 04:54:44;;;;;;;48.25;28.55;;;;;;;8.12;67.56;100593.88;10389261;28;20055;-62
2021/10/13 04:59:45;;;;;;;46.67;25.70;;;;;;;8.12;67.51;100597.28;10389298;28;20050;-62
2021/10/13 05:04:47;;;;;;;61.28;30.42;;;;;;;8.10;67.59;100596.50;10388487;28;20451;-63
2021/10/13 05:09:49;;;;;;;58.95;30.75;;;;;;;8.04;67.70;100594.97;10389456;28;20045;-63
2021/10/13 05:14:51;;;;;;;57.15;29.45;;;;;;;8.11;67.57;100592.16;10387261;28;20171;-62
2021/10/13 05:19:52;;;;;;;62.20;29.58;;;;;;;8.22;67.72;100609.03;10388331;28;20699;-62
2021/10/13 05:24:54;;;;;;;50.17;26.80;;;;;;;8.28;67.35;100616.63;10388013;28;20412;-62
2021/10/13 05:29:55;;;;;;;50.17;27.83;;;;;;;8.33;67.22;100613.84;10388925;28;20559;-63
2021/10/13 05:34:57;;;;;;;45.78;24.83;;;;;;;8.29;67.45;100622.69;10387186;28;20672;-63
2021/10/13 05:39:59;;;;;;;51.83;27.60;;;;;;;8.26;67.30;100635.84;10387214;28;20490;-63
2021/10/13 05:45:00;;;;;;;57.10;26.88;;;;;;;8.33;67.62;100647.72;10386424;28;20063;-63
2021/10/13 05:50:03;;;;;;;75.55;31.70;;;;;;;8.40;67.33;100641.38;10387395;28;20140;-63
2021/10/13 05:55:05;;;;;;;66.00;30.63;;;;;;;8.44;67.44;100640.34;10386795;28;20468;-62
2021/10/13 06:00:08;;;;;;;71.68;32.58;;;;;;;8.46;67.29;100639.38;10382312;28;20049;-62
2021/10/13 06:05:09;;;;;;;75.07;33.08;;;;;;;8.40;67.33;100642.22;10380408;28;20123;-62
2021/10/13 06:10:11;;;;;;;74.70;34.35;;;;;;;8.46;67.38;100635.91;10385144;28;20387;-62
2021/10/13 06:15:13;;;;;;;60.17;29.40;;;;;;;8.44;67.50;100648.16;10381966;28;20059;-63
2021/10/13 06:20:14;;;;;;;65.38;31.75;;;;;;;8.47;67.50;100654.09;10384528;28;20156;-63
2021/10/13 06:25:16;;;;;;;75.80;33.00;;;;;;;8.48;67.51;100653.19;10385208;28;20065;-62
2021/10/13 06:30:18;;;;;;;66.20;31.85;;;;;;;8.55;67.20;100662.44;10385663;28;20059;-62
2021/10/13 06:35:20;;;;;;;56.50;29.90;;;;;;;8.54;67.13;100667.75;10385794;28;20048;-61
2021/10/13 06:40:21;;;;;;;82.05;34.83;;;;;;;8.67;66.84;100671.53;10385136;28;20504;-61
2021/10/13 06:45:23;;;;;;;64.25;32.25;;;;;;;8.48;67.39;100678.41;10383281;28;20053;-61
2021/10/13 06:50:25;;;;;;;52.75;28.90;;;;;;;8.55;67.23;100687.66;10385830;28;20049;-61
2021/10/13 06:55:26;;;;;;;67.38;32.22;;;;;;;8.71;66.99;100689.59;10385628;28;20500;-61
2021/10/13 07:00:28;;;;;;;69.20;33.55;;;;;;;8.75;66.97;100685.97;10385562;28;20051;-61
2021/10/13 07:05:30;;;;;;;64.25;31.80;;;;;;;8.82;66.90;100702.22;10383976;28;20045;-61
2021/10/13 07:10:32;;;;;;;70.78;33.15;;;;;;;8.98;66.51;100711.13;10385505;28;20109;-62
2021/10/13 07:15:34;;;;;;;58.30;31.90;;;;;;;8.97;66.60;100714.66;10384648;28;20050;-62
2021/10/13 07:20:36;;;;;;;75.25;34.00;;;;;;;9.02;66.54;100730.97;10384160;28;20060;-62
2021/10/13 07:25:37;;;;;;;53.58;27.35;;;;;;;9.03;66.65;100722.25;10386217;28;20057;-62
2021/10/13 07:30:39;;;;;;;56.97;30.10;;;;;;;9.02;66.38;100719.66;10388318;28;20071;-62
2021/10/13 07:35:41;;;;;;;64.35;31.25;;;;;;;9.14;66.13;100709.56;10391043;28;20049;-62
2021/10/13 07:40:43;;;;;;;55.15;30.13;;;;;;;9.57;65.57;100726.88;10390229;28;20076;-62
2021/10/13 07:45:45;;;;;;;43.13;25.15;;;;;;;10.38;63.81;100723.22;10387671;28;20057;-62
2021/10/13 07:50:47;;;;;;;42.88;24.10;;;;;;;11.21;62.64;100723.63;10390939;28;20049;-62
2021/10/13 07:55:49;;;;;;;45.97;24.38;;;;;;;11.32;61.99;100724.75;10388935;28;20076;-62
2021/10/13 08:00:51;;;;;;;36.17;22.55;;;;;;;10.90;62.43;100724.22;10392213;28;20080;-62
2021/10/13 08:05:56;;;;;;;37.47;21.63;;;;;;;10.75;62.63;100735.44;10390494;28;20060;-62
2021/10/13 08:10:58;;;;;;;38.42;22.70;;;;;;;10.82;62.52;100733.38;10389748;28;20145;-62
2021/10/13 08:16:02;;;;;;;31.67;20.13;;;;;;;10.77;62.29;100743.19;10387488;28;20050;-69
2021/10/13 08:21:04;;;;;;;34.10;21.77;;;;;;;10.64;62.55;100757.78;10391424;28;20049;-69
2021/10/13 08:26:06;;;;;;;39.97;22.17;;;;;;;10.56;62.19;100767.75;10390626;28;20099;-69
2021/10/13 08:31:09;;;;;;;40.55;21.65;;;;;;;10.35;62.77;100772.22;10390622;28;20440;-69
2021/10/13 08:36:11;;;;;;;33.25;19.77;;;;;;;10.11;62.93;100778.53;10390626;28;20425;-69
2021/10/13 08:41:13;;;;;;;35.28;21.27;;;;;;;9.97;63.55;100775.69;10390905;28;20694;-70
2021/10/13 08:46:15;;;;;;;34.78;18.65;;;;;;;10.25;62.91;100778.78;10391080;28;20243;-69
2021/10/13 08:51:17;;;;;;;32.28;19.48;;;;;;;10.44;62.76;100777.84;10391971;28;20056;-69
2021/10/13 08:56:19;;;;;;;33.22;18.58;;;;;;;10.80;61.92;100775.31;10390693;28;20067;-69
2021/10/13 09:01:21;;;;;;;25.98;16.48;;;;;;;10.97;61.30;100767.50;10389769;28;20056;-69
2021/10/13 09:06:26;;;;;;;30.25;17.23;;;;;;;11.09;61.09;100777.41;10389439;28;20072;-68
2021/10/13 09:11:37;;;;;;;30.90;17.85;;;;;;;11.54;61.44;100770.84;10389798;28;20049;-68
2021/10/13 09:16:57;;;;;;;26.50;17.20;;;;;;;11.70;59.95;100775.19;10389937;28;20063;-69
2021/10/13 09:22:02;;;;;;;33.92;20.35;;;;;;;11.92;60.58;100765.34;10388656;28;20097;-68
2021/10/13 09:27:22;;;;;;;33.63;18.85;;;;;;;12.06;59.76;100751.50;10387604;28;20100;-69
2021/10/13 09:32:27;;;;;;;29.20;16.67;;;;;;;12.31;59.46;100759.78;10389414;28;20055;-69
2021/10/13 09:37:47;;;;;;;25.30;15.77;;;;;;;12.34;58.76;100764.84;10388521;28;20583;-70
2021/10/13 09:42:49;;;;;;;21.02;13.65;;;;;;;12.52;58.53;100755.97;10388111;28;20049;-69
2021/10/13 09:47:58;;;;;;;25.27;14.70;;;;;;;12.62;57.67;100764.22;10386922;28;20053;-70
2021/10/13 09:53:14;;;;;;;20.52;13.07;;;;;;;12.56;56.71;100765.38;10386320;28;20442;-69
2021/10/13 09:58:24;;;;;;;20.02;12.30;;;;;;;12.74;56.98;100759.13;10387864;28;20059;-69
2021/10/13 10:03:26;;;;;;;18.33;11.82;;;;;;;12.71;57.41;100763.69;10387141;28;20067;-70
2021/10/13 10:08:28;;;;;;;16.88;11.75;;;;;;;12.57;57.59;100763.63;10386902;28;20288;-69
2021/10/13 10:13:37;;;;;;;14.43;10.27;;;;;;;12.72;56.31;100758.34;10387132;28;20498;-69
2021/10/13 10:18:41;;;;;;;18.88;10.07;;;;;;;12.90;56.31;100767.81;10386113;28;20501;-69
2021/10/13 10:23:44;;;;;;;14.63;8.93;;;;;;;13.03;56.26;100777.66;10385287;28;20056;-69
2021/10/13 10:28:53;;;;;;;14.27;9.02;;;;;;;12.65;56.35;100778.00;10386843;28;20053;-70
2021/10/13 10:34:06;;;;;;;15.30;9.40;;;;;;;12.14;57.61;100791.25;10386041;28;20049;-69
2021/10/13 10:39:13;;;;;;;18.90;10.93;;;;;;;11.76;58.09;100795.03;10386389;28;20049;-69
2021/10/13 10:44:31;;;;;;;19.42;11.32;;;;;;;11.76;57.01;100795.03;10386352;28;20136;-69
2021/10/13 10:49:55;;;;;;;23.23;12.43;;;;;;;11.96;58.10;100793.09;10386166;28;20089;-69
2021/10/13 10:55:01;;;;;;;17.10;11.38;;;;;;;12.30;57.84;100784.31;10386060;28;20344;-69
2021/10/13 11:00:30;;;;;;;19.40;11.95;;;;;;;12.88;56.39;100785.44;10386029;28;20138;-69
2021/10/13 11:05:32;;;;;;;20.55;12.35;;;;;;;13.03;56.29;100778.50;10384817;28;20154;-69
2021/10/13 11:10:34;;;;;;;22.35;13.73;;;;;;;13.02;55.90;100783.84;10385134;28;20092;-68
2021/10/13 11:15:39;;;;;;;24.25;14.45;;;;;;;12.73;55.54;100783.69;10384064;28;20061;-69
2021/10/13 11:20:43;;;;;;;21.98;14.30;;;;;;;12.33;55.73;100786.78;10385416;28;20059;-70
2021/10/13 11:25:44;;;;;;;24.20;15.05;;;;;;;12.34;56.58;100788.47;10375945;28;20046;-69
2021/10/13 11:30:49;;;;;;;24.45;14.65;;;;;;;12.66;56.11;100782.31;10380988;28;20148;-69
2021/10/13 11:36:03;;;;;;;25.05;14.55;;;;;;;12.74;55.42;100774.88;10384154;28;20055;-69
2021/10/13 11:41:13;;;;;;;26.35;14.40;;;;;;;12.94;55.17;100776.41;10382366;28;20057;-69
2021/10/13 11:46:16;;;;;;;22.63;13.40;;;;;;;13.12;54.82;100766.63;10381804;28;20144;-69
2021/10/13 11:51:18;;;;;;;21.80;12.40;;;;;;;13.16;54.83;100769.00;10381092;28;20045;-69
2021/10/13 11:56:21;;;;;;;21.30;10.20;;;;;;;13.20;53.81;100769.66;10382458;28;20041;-69
2021/10/13 12:01:27;;;;;;;18.42;10.85;;;;;;;13.34;53.32;100769.72;10382337;28;20409;-69
2021/10/13 12:06:40;;;;;;;18.48;10.20;;;;;;;13.50;52.43;100774.03;10381773;28;20064;-69
2021/10/13 12:11:42;;;;;;;15.18;8.55;;;;;;;13.45;52.84;100778.72;10382924;28;20557;-69
2021/10/13 12:16:43;;;;;;;16.08;8.85;;;;;;;13.23;52.54;100769.50;10381792;28;20049;-69
2021/10/13 12:22:03;;;;;;;17.23;9.40;;;;;;;13.37;52.27;100762.50;10389869;28;20057;-69
2021/10/13 12:27:08;;;;;;;19.85;9.10;;;;;;;13.69;51.91;100763.28;10387892;28;20391;-69
2021/10/13 12:32:20;;;;;;;17.40;8.10;;;;;;;13.84;51.19;100772.03;10386228;28;20053;-69
2021/10/13 12:37:25;;;;;;;14.32;6.53;;;;;;;13.69;49.64;100768.53;10389287;28;20060;-69
2021/10/13 12:42:27;;;;;;;14.57;7.43;;;;;;;13.68;50.27;100766.81;10389251;28;20059;-68
2021/10/13 12:47:28;;;;;;;14.05;7.45;;;;;;;13.74;50.82;100763.84;10387040;28;20204;-69
2021/10/13 12:52:30;;;;;;;11.68;6.90;;;;;;;13.78;50.47;100767.97;10389725;28;20079;-69
2021/10/13 12:57:32;;;;;;;11.85;6.60;;;;;;;13.84;50.12;100779.94;10388936;28;20057;-69
2021/10/13 13:02:34;;;;;;;13.90;7.30;;;;;;;13.91;50.60;100779.47;10388926;28;20053;-70
2021/10/13 13:07:36;;;;;;;12.63;6.97;;;;;;;13.66;50.38;100780.06;10388136;28;20119;-69
2021/10/13 13:12:38;;;;;;;13.57;7.10;;;;;;;13.74;50.73;100775.19;10388173;28;20551;-69
2021/10/13 13:17:39;;;;;;;13.43;7.30;;;;;;;13.85;50.97;100764.06;10387657;28;20046;-69
2021/10/13 13:22:41;;;;;;;14.00;7.18;;;;;;;13.90;50.70;100764.63;10390292;28;20117;-69
2021/10/13 13:27:43;;;;;;;14.25;6.88;;;;;;;13.77;50.97;100751.38;10388918;28;20524;-69
2021/10/13 13:32:46;;;;;;;15.00;5.65;;;;;;;13.63;50.29;100745.25;10389810;28;20049;-69
2021/10/13 13:37:47;;;;;;;11.85;4.82;;;;;;;13.84;49.36;100740.50;10388945;28;20053;-69
2021/10/13 13:42:49;;;;;;;10.68;4.25;;;;;;;13.81;49.15;100738.03;10388810;28;20327;-70
2021/10/13 13:47:51;;;;;;;8.23;4.13;;;;;;;14.00;48.20;100739.47;10386171;28;20061;-69
2021/10/13 13:52:53;;;;;;;7.50;4.15;;;;;;;14.05;48.39;100734.75;10386628;28;20060;-69
2021/10/13 13:57:55;;;;;;;10.85;4.43;;;;;;;14.19;48.25;100736.53;10387493;28;20053;-69
2021/10/13 14:02:56;;;;;;;8.95;4.60;;;;;;;14.18;47.82;100745.38;10387902;28;20076;-69
2021/10/13 14:07:58;;;;;;;10.30;4.00;;;;;;;14.47;47.27;100739.16;10386125;28;20053;-69
2021/10/13 14:13:20;;;;;;;7.75;3.63;;;;;;;14.27;47.76;100737.75;10386359;28;20258;-69
2021/10/13 14:18:22;;;;;;;9.90;3.78;;;;;;;14.58;47.00;100739.34;10387206;28;20045;-70
2021/10/13 14:23:23;;;;;;;12.77;4.22;;;;;;;14.51;46.58;100749.41;10385665;28;20053;-70
2021/10/13 14:28:26;;;;;;;9.30;3.78;;;;;;;14.40;47.17;100748.38;10386438;28;20045;-69
2021/10/13 14:33:28;;;;;;;9.68;3.97;;;;;;;14.34;47.20;100756.63;10386712;28;20049;-70
2021/10/13 14:38:30;;;;;;;7.55;4.20;;;;;;;14.26;47.91;100749.22;10387012;28;20159;-70
2021/10/13 14:43:32;;;;;;;11.60;4.28;;;;;;;14.03;47.91;100752.41;10385848;28;20053;-70
2021/10/13 14:48:34;;;;;;;11.45;4.13;;;;;;;13.83;48.30;100758.03;10386499;28;20252;-69
2021/10/13 14:53:37;;;;;;;9.68;4.25;;;;;;;13.37;49.02;100762.50;10386434;28;20050;-70
2021/10/13 14:58:38;;;;;;;8.95;4.47;;;;;;;13.09;49.94;100756.31;10386120;28;20059;-70
2021/10/13 15:03:40;;;;;;;11.45;4.60;;;;;;;12.91;50.78;100764.28;10383822;28;20046;-69
2021/10/13 15:08:42;;;;;;;12.20;4.72;;;;;;;12.88;51.51;100768.88;10384405;28;20079;-68
2021/10/13 15:13:44;;;;;;;10.52;4.40;;;;;;;12.89;51.76;100768.78;10383763;28;20063;-67
2021/10/13 15:18:46;;;;;;;9.55;2.85;;;;;;;12.72;51.38;100763.59;10384282;28;20299;-72
2021/10/13 15:23:48;;;;;;;8.77;3.15;;;;;;;12.64;51.97;100763.19;10382042;28;20046;-71
2021/10/13 15:28:50;;;;;;;6.07;2.97;;;;;;;12.57;52.23;100771.47;10376132;28;20045;-69
2021/10/13 15:33:52;;;;;;;6.68;2.97;;;;;;;12.45;52.52;100775.63;10383464;28;20045;-74
2021/10/13 15:38:53;;;;;;;6.32;2.80;;;;;;;12.40;52.82;100782.03;10383051;28;20147;-74
2021/10/13 15:43:55;;;;;;;5.75;3.05;;;;;;;12.38;53.03;100776.03;10382051;28;20060;-76
2021/10/13 15:48:57;;;;;;;7.20;2.95;;;;;;;12.29;53.11;100782.63;10387758;28;20085;-77
2021/10/13 15:53:59;;;;;;;6.40;2.80;;;;;;;12.21;53.40;100787.41;10390119;28;20452;-76
2021/10/13 15:59:03;;;;;;;7.25;2.78;;;;;;;12.05;52.99;100795.22;10391508;28;20076;-76
2021/10/13 16:04:04;;;;;;;6.93;2.70;;;;;;;12.01;53.13;100779.72;10390242;28;20565;-76
2021/10/13 16:09:06;;;;;;;7.05;3.15;;;;;;;11.78;53.45;100788.78;10384323;28;20045;-76
2021/10/13 16:14:08;;;;;;;5.45;2.85;;;;;;;11.60;53.79;100794.94;10391114;28;20897;-76
2021/10/13 16:19:10;;;;;;;5.68;2.90;;;;;;;11.45;54.85;100802.72;10388288;28;20041;-77
2021/10/13 16:24:12;;;;;;;4.90;2.90;;;;;;;11.32;54.75;100812.94;10388611;28;20421;-76
2021/10/13 16:29:14;;;;;;;5.75;2.60;;;;;;;11.25;54.64;100812.38;10386599;28;20322;-76
2021/10/13 16:34:16;;;;;;;5.78;2.97;;;;;;;11.12;54.82;100810.44;10388382;28;20360;-76
2021/10/13 16:39:17;;;;;;;5.20;2.60;;;;;;;11.01;54.99;100816.16;10383424;28;20531;-76
2021/10/13 16:44:19;;;;;;;5.88;2.58;;;;;;;10.85;55.27;100820.41;10386853;28;20059;-76
2021/10/13 16:49:21;;;;;;;5.55;2.50;;;;;;;10.64;55.82;100821.44;10387585;28;20073;-76
2021/10/13 16:54:23;;;;;;;6.75;2.50;;;;;;;10.52;56.42;100835.06;10387915;28;20231;-75
2021/10/13 16:59:26;;;;;;;7.05;2.97;;;;;;;10.44;57.05;100834.53;10386862;28;20055;-76
2021/10/13 17:04:29;;;;;;;6.32;2.80;;;;;;;10.35;58.18;100832.34;10383823;28;20049;-78
2021/10/13 17:09:31;;;;;;;7.10;3.00;;;;;;;10.29;58.19;100838.72;10386205;28;20053;-77
2021/10/13 17:14:33;;;;;;;6.50;2.90;;;;;;;10.29;58.73;100849.16;10385221;28;20064;-77
2021/10/13 17:19:35;;;;;;;5.30;2.95;;;;;;;10.35;59.03;100850.66;10384099;28;20053;-76
2021/10/13 17:24:37;;;;;;;7.15;3.13;;;;;;;10.35;59.14;100848.03;10386746;28;20056;-77
2021/10/13 17:29:39;;;;;;;7.95;2.75;;;;;;;10.33;59.06;100848.13;10383784;28;20461;-77
2021/10/13 17:34:41;;;;;;;8.00;3.38;;;;;;;10.25;58.95;100842.38;10381923;28;20056;-77
2021/10/13 17:39:46;;;;;;;7.28;3.13;;;;;;;10.20;59.52;100846.94;10386432;28;20050;-77
2021/10/13 17:44:48;;;;;;;6.05;2.47;;;;;;;10.17;59.28;100846.22;10379530;28;20063;-78
2021/10/13 17:49:50;;;;;;;7.45;2.60;;;;;;;10.00;59.79;100846.09;10384561;28;20512;-76
2021/10/13 17:54:52;;;;;;;7.70;3.45;;;;;;;10.01;59.97;100847.81;10384105;28;20055;-75
2021/10/13 17:59:54;;;;;;;6.07;2.50;;;;;;;9.95;60.36;100866.38;10384437;28;20085;-75
2021/10/13 18:04:58;;;;;;;6.45;3.22;;;;;;;9.95;60.57;100861.13;10382471;28;20152;-75
2021/10/13 18:10:00;;;;;;;9.38;3.72;;;;;;;10.02;60.51;100858.19;10382859;28;20049;-75
2021/10/13 18:15:05;;;;;;;9.30;3.10;;;;;;;10.00;60.49;100864.38;10382653;28;20049;-75
2021/10/13 18:20:08;;;;;;;8.70;2.88;;;;;;;9.89;61.06;100871.84;10385243;28;20049;-75
2021/10/13 18:25:10;;;;;;;7.38;2.80;;;;;;;9.91;61.02;100872.63;10385878;28;20053;-76
2021/10/13 18:30:12;;;;;;;9.32;3.08;;;;;;;9.91;61.47;100870.03;10383522;28;20050;-77
2021/10/13 18:35:14;;;;;;;7.75;2.65;;;;;;;9.74;61.37;100875.94;10383575;28;20053;-75
2021/10/13 18:40:17;;;;;;;10.02;3.05;;;;;;;9.48;61.96;100884.78;10384589;28;20046;-75
2021/10/13 18:45:19;;;;;;;8.07;3.15;;;;;;;9.24;62.61;100890.16;10384227;28;20561;-75
2021/10/13 18:50:21;;;;;;;10.65;4.32;;;;;;;9.26;62.45;100891.78;10383912;28;20218;-75
2021/10/13 18:55:22;;;;;;;7.40;3.88;;;;;;;9.17;62.83;100896.50;10384601;28;20140;-64
2021/10/13 19:00:24;;;;;;;11.15;3.90;;;;;;;9.09;62.93;100896.81;10383489;28;20059;-64
2021/10/13 19:05:26;;;;;;;8.38;3.67;;;;;;;9.16;63.49;100900.00;10383833;28;20051;-64
2021/10/13 19:10:28;;;;;;;9.68;4.00;;;;;;;9.32;63.67;100904.59;10383012;28;20049;-64
2021/10/13 19:15:29;;;;;;;8.68;3.88;;;;;;;9.39;63.43;100905.19;10382713;28;20476;-65
2021/10/13 19:20:31;;;;;;;9.10;4.72;;;;;;;9.41;63.39;100899.03;10384440;28;20072;-64
2021/10/13 19:25:33;;;;;;;10.13;5.32;;;;;;;9.39;63.37;100903.44;10396249;28;20058;-64
2021/10/13 19:30:35;;;;;;;9.98;4.38;;;;;;;9.35;63.42;100907.09;10394262;28;20049;-65
2021/10/13 19:35:37;;;;;;;8.40;3.92;;;;;;;9.34;63.45;100907.16;10389387;28;20061;-64
2021/10/13 19:40:39;;;;;;;7.78;3.40;;;;;;;9.33;63.52;100910.66;10395759;28;20508;-64
2021/10/13 19:45:42;;;;;;;7.95;3.75;;;;;;;9.27;63.77;100909.16;10395165;28;20144;-64
2021/10/13 19:50:44;;;;;;;5.50;3.00;;;;;;;9.24;63.80;100908.44;10396522;28;20041;-63
2021/10/13 19:55:46;;;;;;;8.25;3.17;;;;;;;9.29;63.54;100912.56;10398717;28;20049;-64
2021/10/13 20:00:48;;;;;;;6.90;3.00;;;;;;;9.25;63.61;100910.97;10397164;28;20126;-64
2021/10/13 20:05:52;;;;;;;8.30;3.20;;;;;;;9.35;63.34;100920.16;10396220;28;20053;-64
2021/10/13 20:10:53;;;;;;;8.43;3.28;;;;;;;9.42;63.16;100926.81;10396095;28;20050;-64
2021/10/13 20:15:55;;;;;;;6.63;3.38;;;;;;;9.46;63.33;100936.22;10397777;28;20140;-64
2021/10/13 20:20:57;;;;;;;7.60;3.55;;;;;;;9.56;63.15;100950.63;10396409;28;20049;-63
2021/10/13 20:25:59;;;;;;;8.13;3.30;;;;;;;9.57;62.98;100947.13;10396048;28;20420;-63
2021/10/13 20:31:00;;;;;;;9.10;3.63;;;;;;;9.63;63.06;100959.94;10394951;28;20059;-64
2021/10/13 20:36:02;;;;;;;8.88;3.40;;;;;;;9.68;62.89;100959.78;10390558;28;20056;-64
2021/10/13 20:41:04;;;;;;;9.75;3.80;;;;;;;9.61;63.08;100960.88;10389769;28;20053;-64
2021/10/13 20:46:05;;;;;;;6.95;3.75;;;;;;;9.58;63.09;100954.03;10390034;28;20421;-64
2021/10/13 20:51:07;;;;;;;6.00;3.03;;;;;;;9.49;63.26;100950.94;10389105;28;20145;-64
2021/10/13 20:56:09;;;;;;;9.93;3.70;;;;;;;9.54;63.22;100942.00;10388839;28;20045;-64
2021/10/13 21:01:11;;;;;;;6.25;3.30;;;;;;;9.61;63.19;100940.00;10388649;28;20430;-64
2021/10/13 21:06:13;;;;;;;8.45;3.63;;;;;;;9.58;63.20;100946.19;10388179;28;20544;-64
2021/10/13 21:11:15;;;;;;;6.72;3.75;;;;;;;9.64;63.38;100945.13;10388419;28;20055;-64
2021/10/13 21:16:18;;;;;;;6.18;3.47;;;;;;;9.69;62.83;100942.34;10386044;28;20827;-64
2021/10/13 21:21:20;;;;;;;9.55;4.00;;;;;;;9.58;63.09;100942.75;10386105;28;20045;-63
2021/10/13 21:26:22;;;;;;;8.93;3.58;;;;;;;9.57;63.27;100936.66;10386036;28;20143;-64
2021/10/13 21:31:26;;;;;;;7.60;3.97;;;;;;;9.65;63.33;100934.59;10388073;28;20046;-64
2021/10/13 21:36:28;;;;;;;8.57;3.45;;;;;;;9.69;63.21;100931.91;10387448;28;20059;-64
2021/10/13 21:41:30;;;;;;;7.82;4.00;;;;;;;9.79;63.02;100934.06;10386749;28;20045;-63
2021/10/13 21:46:34;;;;;;;12.40;3.72;;;;;;;9.82;62.89;100933.09;10385945;28;20049;-63
2021/10/13 21:51:38;;;;;;;7.40;3.28;;;;;;;9.84;62.87;100941.72;10386447;28;20486;-64
2021/10/13 21:56:40;;;;;;;9.85;3.95;;;;;;;9.68;63.33;100945.88;10387212;28;20225;-63
2021/10/13 22:01:42;;;;;;;11.18;4.00;;;;;;;9.56;63.62;100937.56;10385967;28;20409;-63
2021/10/13 22:06:44;;;;;;;7.82;3.95;;;;;;;9.65;63.47;100938.97;10386513;28;20057;-63
2021/10/13 22:11:46;;;;;;;7.70;4.00;;;;;;;9.68;63.44;100928.44;10386608;28;20056;-63
2021/10/13 22:16:47;;;;;;;8.52;3.70;;;;;;;9.67;63.24;100938.97;10384720;28;20251;-63
2021/10/13 22:21:49;;;;;;;8.82;3.83;;;;;;;9.56;63.50;100923.69;10385323;28;20075;-63
2021/10/13 22:26:51;;;;;;;7.57;3.90;;;;;;;9.57;63.34;100931.44;10385350;28;20056;-63
2021/10/13 22:31:53;;;;;;;8.23;4.53;;;;;;;9.61;63.75;100942.59;10385256;28;20041;-64
2021/10/13 22:36:55;;;;;;;8.20;4.00;;;;;;;9.67;63.43;100946.78;10385273;28;20409;-63
2021/10/13 22:41:57;;;;;;;7.78;4.18;;;;;;;9.68;63.40;100936.28;10383518;28;20041;-63
2021/10/13 22:46:58;;;;;;;7.75;3.70;;;;;;;9.68;63.51;100935.41;10384352;28;20050;-63
2021/10/13 22:52:00;;;;;;;9.75;4.00;;;;;;;9.69;63.39;100939.75;10383925;28;20045;-63
2021/10/13 22:57:16;;;;;;;7.85;4.00;;;;;;;9.65;63.50;100931.97;10383314;28;20122;-63
2021/10/13 23:02:19;;;;;;;7.32;4.03;;;;;;;9.55;63.61;100933.25;10383973;28;20084;-63
2021/10/13 23:07:21;;;;;;;8.35;3.45;;;;;;;9.52;63.75;100929.94;10384503;28;20145;-63